This is the latest recevied weather packets stored in our database for station/object OE-11361. If no packets are shown the sender has not sent any weather packets the latest 10 day(s).
| Time | Temp. | Humidity | Pressure | Rain* | Wind** | Luminosity | Snow |
|---|---|---|---|---|---|---|---|
| 1787727904 | 17.22° C | 91% | 1017.7 hPa | 0 mm | - | 200 W/m² | - |
| 1787727304 | 16.67° C | 90% | 1017.7 hPa | 0 mm | - | 152 W/m² | - |
| 1787726715 | 16.67° C | 90% | 1017.6 hPa | 0 mm | - | 234 W/m² | - |
| 1787726104 | 16.11° C | 93% | 1017.6 hPa | 0 mm | - | 172 W/m² | - |
| 1787725504 | 16.11° C | 92% | 1017.6 hPa | 0 mm | - | 145 W/m² | - |
| 1787724676 | 15.56° C | 94% | 1017.6 hPa | 0 mm | - | 103 W/m² | - |
| 1787724304 | 15.56° C | 93% | 1017.7 hPa | 0 mm | - | 90 W/m² | - |
| 1787723703 | 15.56° C | 95% | 1017.6 hPa | 0 mm | - | 83 W/m² | - |
| 1787722876 | 15.56° C | 94% | 1017.7 hPa | 0 mm | - | 69 W/m² | - |
| 1787722504 | 15° C | 98% | 1017.7 hPa | 0 mm | - | 55 W/m² | - |
| 1787721904 | 15° C | 96% | 1017.7 hPa | 0 mm | - | 41 W/m² | - |
| 1787721076 | 15° C | 97% | 1017.7 hPa | 0 mm | - | 21 W/m² | - |
| 1787720704 | 15° C | 97% | 1017.7 hPa | 0 mm | - | 14 W/m² | - |
| 1787720104 | 15° C | 96% | 1017.7 hPa | 0 mm | - | 7 W/m² | - |
| 1787719277 | 14.44° C | 98% | 1017.7 hPa | 0 mm | - | 0 W/m² | - |
| 1787718904 | 14.44° C | 98% | 1017.8 hPa | 0 mm | - | 0 W/m² | - |
| 1787718303 | 14.44° C | 97% | 1017.7 hPa | 0 mm | - | 0 W/m² | - |
| 1787717476 | 15° C | 96% | 1017.8 hPa | 0 mm | - | 0 W/m² | - |
| 1787717104 | 14.44° C | 97% | 1017.5 hPa | 0 mm | - | 0 W/m² | - |
| 1787716503 | 14.44° C | 98% | 1017.6 hPa | 0 mm | - | 0 W/m² | - |
| 1787715904 | 14.44° C | 98% | 1017.6 hPa | 0 mm | - | 0 W/m² | - |
| 1787715303 | 14.44° C | 99% | 1017.6 hPa | 0 mm | - | 0 W/m² | - |
| 1787714704 | 14.44° C | 99% | 1017.7 hPa | 0 mm | - | 0 W/m² | - |
| 1787713876 | 13.89° C | 99% | 1017.8 hPa | 0 mm | - | 0 W/m² | - |
| 1787713504 | 14.44° C | 98% | 1017.8 hPa | 0 mm | - | 0 W/m² | - |
* Rain latest hour (hover to see other rain measurements)
** Current wind speed in m/s (hover to see current wind gust speed)